Nearby METAR Reports

 

KMTN - Baltimore/Martin, Maryland, USA
Distance from station: SSE 8mi, 13km
Updated: Sat, 22-Nov-2014 5:45pm EST
Partly cloudy
Partly cloudy
 Wind from SSE
Wind: SSE 7 mph , 11 km/h
Temperature: 46°F , 8°C
Wind Chill: 42°F , 6°C
Dew Point: 27°F , -3°C
Humidity: 46%
Barometer: 30.31 inHg , 1026.4 hPa
Clouds: Partly cloudy
Visibility: 10 miles , 16 km
Cloud details: Partly cloudy 9000 ft
2014/11/22 22:45 KMTN 222245Z 16006KT 10SM SCT090 08/M03 A3031
KDMH - Baltimore/Dwntwn, Maryland, USA
Distance from station: SW 12mi, 19km
Updated: Sat, 22-Nov-2014 5:54pm EST

 
Temperature: 48°F , 9°C
Dew Point: 16°F , -9°C
Humidity: 27%
Barometer: 30.30 inHg , 1026.1 hPa
2014/11/22 22:54 KDMH 222254Z AUTO 09/M09 A3030 RMK AO1 SLP259 T00891094
 
KBWI - Balto/Wash Intl, Maryland, USA
Distance from station: SSW 20mi, 33km
Updated: Sat, 22-Nov-2014 5:54pm EST
Mostly cloudy
Mostly cloudy
 Wind from S
Wind: S 5 mph , 7 km/h
Temperature: 45°F , 7°C
Wind Chill: 42°F , 6°C
Dew Point: 16°F , -9°C
Humidity: 31%
Barometer: 30.29 inHg , 1025.7 hPa
Clouds: Mostly cloudy
Visibility: 10 miles , 16 km
Cloud details: Mostly cloudy 9500 ft
Mostly cloudy 25000 ft
2014/11/22 22:54 KBWI 222254Z 19004KT 10SM BKN095 BKN250 07/M09 A3029 RMK AO2 SLP259 T00721094
KDMW - Carroll Cnty, Maryland, USA
Distance from station: WNW 30mi, 48km
Updated: Sat, 22-Nov-2014 5:35pm EST
Partly cloudy
Partly cloudy
 Wind from S
Wind: S 5 mph , 7 km/h
Temperature: 39°F , 4°C
Wind Chill: 35°F , 2°C
Dew Point: 18°F , -8°C
Humidity: 42%
Barometer: 30.26 inHg , 1024.7 hPa
Clouds: Partly cloudy
Visibility: 10 miles , 16 km
Cloud details: Partly cloudy 9000 ft
2014/11/22 22:35 KDMW 222235Z AUTO 18004KT 10SM SCT090 04/M08 A3026 RMK AO2
 
KNAK - Annapolis/Naval, Maryland, USA
Distance from station: S 30mi, 48km
Updated: Sat, 22-Nov-2014 5:54pm EST
Overcast
Overcast
 Wind from S
Wind: S 7 mph , 11 km/h
Temperature: 45°F , 7°C
Wind Chill: 41°F , 5°C
Dew Point: 16°F , -9°C
Humidity: 31%
Barometer: 30.31 inHg , 1026.4 hPa
Clouds: Overcast
Visibility: 10 miles , 16 km
Cloud details: Overcast 10000 ft
2014/11/22 22:54 KNAK 222254Z AUTO 18006KT 10SM OVC100 07/M09 A3031 RMK AO2 SLP266 T00721089
KW29 - Stevensville, Maryland, USA
Distance from station: SSE 31mi, 50km
Updated: Sat, 22-Nov-2014 5:58pm EST

 Wind from S
Wind: S 7 mph , 11 km/h
Temperature: 45°F , 7°C
Wind Chill: 41°F , 5°C
Dew Point: 21°F , -6°C
Humidity: 39%
Barometer: 30.31 inHg , 1026.4 hPa
Visibility: 10 miles , 16 km
2014/11/22 22:58 KW29 222258Z AUTO 18006KT 10SM 07/M06 A3031 RMK AO1
 
KCGS - College Park, Maryland, USA
Distance from station: SW 38mi, 61km
Updated: Sat, 22-Nov-2014 5:55pm EST
Partly cloudy
Partly cloudy
 Wind from calm
Wind: Calm
Temperature: 46°F , 8°C
Dew Point: 18°F , -8°C
Humidity: 32%
Barometer: 30.30 inHg , 1026.1 hPa
Clouds: Partly cloudy
Visibility: 10 miles , 16 km
Cloud details: Partly cloudy 9500 ft
2014/11/22 22:55 KCGS 222255Z AUTO 00000KT 10SM SCT095 08/M08 A3030 RMK AO1
KGAI - Gaithersburg, Maryland, USA
Distance from station: WSW 40mi, 65km
Updated: Sat, 22-Nov-2014 6:15pm EST
Clear
Clear
 Wind from S
Wind: S 6 mph , 9 km/h
Temperature: 45°F , 7°C
Wind Chill: 42°F , 6°C
Dew Point: 16°F , -9°C
Humidity: 31%
Barometer: 30.32 inHg , 1026.8 hPa
Clouds: Clear
Visibility: 10 miles , 16 km
2014/11/22 23:15 KGAI 222315Z 19005KT 10SM CLR 07/M09 A3032 RMK AO1
 
KTHV - York, Pennsylvania, USA
Distance from station: NNW 40mi, 65km
Updated: Sat, 22-Nov-2014 5:53pm EST
Overcast
Overcast
 Wind from calm
Wind: Calm
Temperature: 39°F , 4°C
Dew Point: 19°F , -7°C
Humidity: 45%
Barometer: 30.26 inHg , 1024.7 hPa
Clouds: Overcast
Visibility: 10 miles , 16 km
Cloud details: Overcast 6500 ft
2014/11/22 22:53 KTHV 222253Z AUTO 00000KT 10SM OVC065 04/M07 A3026 RMK AO2 SLP256 T00441067
KFDK - Frederick, Maryland, USA
Distance from station: W 47mi, 75km
Updated: Sat, 22-Nov-2014 5:50pm EST
Clear
Clear
 Wind from SSW
Wind: SSW 8 mph , 13 km/h
Temperature: 48°F , 9°C
Wind Chill: 44°F , 7°C
Dew Point: 10°F , -12°C
Humidity: 21%
Barometer: 30.29 inHg , 1025.7 hPa
Clouds: Clear
Visibility: 10 miles , 16 km
2014/11/22 22:50 KFDK 222250Z 21007KT 10SM SKC 09/M12 A3029
 
KESN - Easton/Newnam, Maryland, USA
Distance from station: SSE 48mi, 78km
Updated: Sat, 22-Nov-2014 5:27am EST
NOT Current
Clear
Clear
 Wind from calm
Wind: Calm
Temperature: 23°F , -5°C
Dew Point: 18°F , -8°C
Humidity: 80%
Barometer: 30.57 inHg , 1035.2 hPa
Clouds: Clear
Visibility: 10 miles , 16 km
2014/11/22 10:27 KESN 221027Z AUTO 00000KT 10SM CLR M05/M08 A3057 RMK AO2 T10511076
KDCA - Washington/Natl, Washington D.c., USA
Distance from station: SW 49mi, 79km
Updated: Sat, 22-Nov-2014 5:52pm EST
Partly cloudy
Partly cloudy
 Wind from SSW
Wind: SSW 9 mph , 15 km/h
Temperature: 45°F , 7°C
Wind Chill: 40°F , 4°C
Dew Point: 23°F , -5°C
Humidity: 42%
Barometer: 30.32 inHg , 1026.8 hPa
Clouds: Partly cloudy
Visibility: 10 miles , 16 km
Cloud details: Partly cloudy 10000 ft
Partly cloudy 25000 ft
2014/11/22 22:52 KDCA 222252Z 20008KT 10SM SCT100 SCT250 07/M05 A3032 RMK AO2 SLP265 T00721050
 
KLNS - Lancaster, Pennsylvania, USA
Distance from station: N 49mi, 79km
Updated: Sat, 22-Nov-2014 5:53pm EST
Overcast
Overcast
 Wind from SE
Wind: SE 3 mph , 6 km/h
Temperature: 39°F , 4°C
Dew Point: 19°F , -7°C
Humidity: 45%
Barometer: 30.27 inHg , 1025.1 hPa
Clouds: Overcast
Visibility: 10 miles , 16 km
Cloud details: Partly cloudy 4700 ft
Overcast 6000 ft
2014/11/22 22:53 KLNS 222253Z 14003KT 10SM SCT047 OVC060 04/M07 A3027 RMK AO2 SLP255 T00441072
KILG - Wilmington, Delaware, USA
Distance from station: ENE 50mi, 81km
Updated: Sat, 22-Nov-2014 5:51pm EST
Overcast
Overcast
 Wind from SSW
Wind: SSW 8 mph , 13 km/h
Temperature: 45°F , 7°C
Wind Chill: 41°F , 5°C
Dew Point: 19°F , -7°C
Humidity: 37%
Barometer: 30.31 inHg , 1026.4 hPa
Clouds: Overcast
Visibility: 10 miles , 16 km
Cloud details: Overcast 8000 ft
2014/11/22 22:51 KILG 222251Z 20007KT 10SM OVC080 07/M07 A3031 RMK AO2 SLP264 T00671072